Time;durP1;ratioP1;P1;durP2;ratioP2;P2;SDS_P1;SDS_P2;PMS_P1;PMS_P2;Temp;Humidity;BMP_temperature;BMP_pressure;BME280_temperature;BME280_humidity;BME280_pressure;Samples;Min_cycle;Max_cycle;Signal;HPM_P1;HPM_P2
2022/09/15 00:01:46;;;;;;;51.80;46.80;;;;;;;23.26;53.55;98938.02;109832;1259;21965;-47
2022/09/15 00:04:15;;;;;;;52.80;48.10;;;;;;;23.26;53.48;98933.16;110065;1256;22180;-47
2022/09/15 00:06:44;;;;;;;47.90;43.40;;;;;;;23.27;53.49;98929.65;109864;1259;23751;-49
2022/09/15 06:17:01;;;;;;;10.00;6.20;;;;;;;20.75;58.32;98946.16;107141;1286;544373;-48
2022/09/15 06:19:32;;;;;;;10.60;6.30;;;;;;;20.78;58.15;98944.92;109814;1260;21969;-48
2022/09/15 06:22:01;;;;;;;10.10;5.40;;;;;;;20.87;57.89;98949.64;109489;1263;21972;-49
2022/09/15 06:24:30;;;;;;;7.90;5.70;;;;;;;20.99;57.88;98953.95;109836;1260;23034;-50
2022/09/15 06:26:59;;;;;;;7.80;5.10;;;;;;;21.12;57.64;98953.47;110472;1255;23580;-46
2022/09/15 06:29:28;;;;;;;6.40;5.60;;;;;;;21.25;57.31;98955.10;110081;1256;26481;-48
2022/09/15 06:32:01;;;;;;;10.70;5.50;;;;;;;21.37;57.05;98952.42;109056;1254;21966;-47
2022/09/15 06:34:31;;;;;;;11.60;5.50;;;;;;;21.49;57.02;98956.36;110308;1254;21960;-46
2022/09/15 06:37:00;;;;;;;9.40;5.70;;;;;;;21.60;56.74;98965.99;110262;1254;23703;-47
2022/09/15 06:39:29;;;;;;;7.60;5.30;;;;;;;21.70;56.57;98964.89;110218;1254;23590;-49
2022/09/15 06:41:58;;;;;;;5.60;5.00;;;;;;;21.80;56.34;98966.80;109869;1254;23663;-50
2022/09/15 06:44:31;;;;;;;6.30;5.00;;;;;;;21.90;56.11;98964.62;111058;1254;22444;-55
2022/09/15 06:47:00;;;;;;;7.00;5.10;;;;;;;21.99;55.98;98964.09;111407;1254;21949;-49
2022/09/15 06:49:30;;;;;;;8.80;5.30;;;;;;;22.11;55.62;98968.14;110600;1254;22985;-47
2022/09/15 06:52:01;;;;;;;5.30;4.30;;;;;;;22.21;55.48;98967.45;110640;1253;21972;-47
2022/09/15 06:54:30;;;;;;;6.60;4.90;;;;;;;22.29;55.37;98965.75;110801;1253;21958;-49
2022/09/15 06:56:59;;;;;;;8.20;4.40;;;;;;;22.35;55.16;98968.84;110549;1254;22259;-48
2022/09/15 06:59:28;;;;;;;6.70;4.90;;;;;;;22.40;55.11;98971.77;110857;1257;22788;-48
2022/09/15 07:02:04;;;;;;;8.30;4.60;;;;;;;22.46;54.96;98975.70;110803;1252;21968;-49
2022/09/15 07:04:37;;;;;;;8.00;4.70;;;;;;;22.51;54.80;98979.05;110670;1254;21973;-46
2022/09/15 07:07:05;;;;;;;8.30;4.00;;;;;;;22.56;54.51;98977.81;111086;1254;23082;-48
2022/09/15 07:09:34;;;;;;;8.50;4.80;;;;;;;22.60;54.60;98979.34;110847;1254;22325;-45
2022/09/15 07:12:08;;;;;;;6.00;4.50;;;;;;;22.63;54.36;98978.30;110795;1254;21981;-48
2022/09/15 07:14:37;;;;;;;8.10;4.90;;;;;;;22.66;54.25;98979.20;110750;1254;21960;-48
2022/09/15 07:17:06;;;;;;;7.80;4.40;;;;;;;22.68;54.14;98978.23;110782;1253;23055;-47
2022/09/15 07:19:35;;;;;;;12.10;4.50;;;;;;;22.71;54.00;98977.63;110309;1257;23574;-45
2022/09/15 07:22:04;;;;;;;8.70;4.60;;;;;;;22.73;54.02;98984.30;110728;1254;23503;-46
2022/09/15 07:24:33;;;;;;;6.20;4.60;;;;;;;22.75;53.84;98990.85;110822;1251;21955;-48
2022/09/15 07:27:02;;;;;;;7.30;4.20;;;;;;;22.77;53.86;98990.41;110549;1254;21969;-47
2022/09/15 07:29:31;;;;;;;7.00;3.90;;;;;;;22.80;53.92;98989.70;110797;1254;21979;-47
2022/09/15 07:32:05;;;;;;;10.40;4.50;;;;;;;22.82;53.74;98993.92;110431;1254;22010;-47
2022/09/15 07:34:34;;;;;;;7.70;4.40;;;;;;;22.84;53.70;98994.31;110629;1254;23766;-47
2022/09/15 07:37:03;;;;;;;8.20;4.30;;;;;;;22.86;53.81;98988.69;110341;1254;23022;-51
2022/09/15 07:39:32;;;;;;;6.30;4.20;;;;;;;22.88;53.71;98995.05;110941;1253;23662;-46
2022/09/15 07:42:01;;;;;;;6.00;3.80;;;;;;;22.90;53.58;98993.11;110506;1254;23032;-46
2022/09/15 07:44:30;;;;;;;9.30;4.00;;;;;;;22.91;53.51;98999.92;110600;1254;21964;-45
2022/09/15 07:46:58;;;;;;;6.50;4.00;;;;;;;22.92;53.43;98998.39;110164;1254;24261;-48
2022/09/15 12:03:35;;;;;;;2.60;1.90;;;;;;;20.72;57.96;98995.60;107157;1286;544074;-54
2022/09/15 12:06:33;;;;;;;6.00;2.10;;;;;;;20.77;57.80;98995.76;109509;1260;21977;-57
2022/09/15 12:09:11;;;;;;;9.10;2.60;;;;;;;20.91;57.60;99003.51;109792;1260;21969;-55
2022/09/15 12:11:55;;;;;;;5.00;2.20;;;;;;;21.05;57.43;99003.15;109882;1260;21984;-55
2022/09/15 12:14:33;;;;;;;5.40;2.40;;;;;;;21.19;57.19;99000.84;109949;1260;23680;-54
2022/09/15 12:17:06;;;;;;;4.70;3.90;;;;;;;21.33;56.76;98999.09;108685;1259;1806745;-56
2022/09/15 12:19:58;;;;;;;5.60;2.70;;;;;;;21.46;56.58;98988.74;110092;1259;23050;-49
2022/09/15 12:22:35;;;;;;;5.40;2.70;;;;;;;21.58;56.45;98987.13;110047;1260;23577;-52
2022/09/15 12:25:28;;;;;;;7.60;2.80;;;;;;;21.68;56.19;98987.24;109770;1260;22004;-53
2022/09/15 12:28:26;;;;;;;6.50;2.70;;;;;;;21.77;56.06;98988.20;110062;1259;23737;-57
2022/09/15 12:31:33;;;;;;;3.90;2.10;;;;;;;21.86;55.83;98991.02;109855;1260;21995;-49
2022/09/15 12:34:34;;;;;;;3.80;2.30;;;;;;;21.94;55.56;98987.55;110042;1259;23605;-51
2022/09/15 12:37:17;;;;;;;5.90;2.30;;;;;;;22.01;55.46;98985.67;110051;1260;21968;-57
2022/09/15 12:39:46;;;;;;;6.40;3.00;;;;;;;22.08;55.11;98986.34;109854;1259;23159;-55
2022/09/15 12:42:31;;;;;;;7.10;2.80;;;;;;;22.13;55.04;98981.70;109954;1259;23573;-56
2022/09/15 12:45:21;;;;;;;3.90;2.90;;;;;;;22.19;54.89;98977.54;109814;1260;21963;-54
2022/09/15 12:48:02;;;;;;;7.20;3.10;;;;;;;22.25;54.76;98972.55;109882;1260;23670;-52
2022/09/15 12:50:32;;;;;;;10.10;3.50;;;;;;;22.29;54.48;98966.73;109769;1260;23023;-57
2022/09/15 12:53:19;;;;;;;7.50;3.90;;;;;;;22.34;54.45;98969.77;110060;1258;21959;-54
2022/09/15 12:55:55;;;;;;;5.90;2.80;;;;;;;22.37;54.25;98969.80;109898;1259;23663;-51
2022/09/15 12:58:40;;;;;;;6.70;3.20;;;;;;;22.41;54.15;98971.20;110021;1259;21975;-50
2022/09/15 13:01:18;;;;;;;5.00;2.50;;;;;;;22.43;54.10;98968.70;110032;1259;23478;-49
2022/09/15 13:03:52;;;;;;;7.60;3.00;;;;;;;22.45;53.88;98966.34;109999;1259;23184;-46
2022/09/15 13:06:28;;;;;;;5.20;2.90;;;;;;;22.47;53.84;98954.77;110031;1258;23584;-45
2022/09/15 13:09:06;;;;;;;6.10;3.10;;;;;;;22.49;53.72;98956.83;109871;1259;22221;-50
2022/09/15 13:11:38;;;;;;;5.90;3.00;;;;;;;22.52;53.61;98952.06;110071;1258;23653;-47
2022/09/15 13:14:34;;;;;;;4.60;3.60;;;;;;;22.54;53.44;98950.06;110040;1259;23685;-53
2022/09/15 13:17:18;;;;;;;8.80;3.00;;;;;;;22.55;53.37;98951.33;110045;1259;23023;-54
2022/09/15 13:19:56;;;;;;;7.10;3.30;;;;;;;22.58;53.39;98948.73;109873;1260;22873;-46
2022/09/15 13:22:35;;;;;;;15.30;4.00;;;;;;;22.61;53.48;98950.68;110088;1259;21959;-48
2022/09/15 13:25:12;;;;;;;12.00;3.50;;;;;;;22.64;53.32;98949.69;110017;1258;21968;-48
2022/09/15 13:27:55;;;;;;;5.20;2.80;;;;;;;22.66;53.28;98945.19;110013;1259;21996;-53
2022/09/15 13:31:05;;;;;;;8.30;2.60;;;;;;;22.67;53.08;98940.80;110066;1259;21976;-49
2022/09/15 13:34:06;;;;;;;5.50;2.50;;;;;;;22.67;53.25;98939.20;110023;1259;22758;-50
2022/09/15 13:37:57;;;;;;;7.60;2.90;;;;;;;22.67;53.13;98932.29;109848;1259;21975;-48
2022/09/15 13:41:32;;;;;;;4.50;3.00;;;;;;;22.68;53.40;98929.36;109974;1259;23615;-52
2022/09/15 13:44:04;;;;;;;4.20;2.50;;;;;;;22.69;53.29;98931.34;110060;1259;21996;-56
2022/09/15 13:47:07;;;;;;;4.10;2.70;;;;;;;22.73;53.35;98927.95;109977;1259;21976;-55
2022/09/15 13:50:10;;;;;;;5.10;3.20;;;;;;;22.74;53.34;98926.54;109699;1260;21978;-53
2022/09/15 13:53:23;;;;;;;4.00;2.60;;;;;;;22.76;53.30;98929.55;109788;1260;21981;-53
2022/09/15 13:55:55;;;;;;;6.60;2.70;;;;;;;22.77;53.55;98926.94;109868;1260;23045;-49
2022/09/15 13:58:25;;;;;;;6.50;2.50;;;;;;;22.80;53.31;98925.55;109674;1260;23774;-53
2022/09/15 14:01:19;;;;;;;5.10;2.70;;;;;;;22.81;53.31;98927.73;109673;1260;22198;-49
2022/09/15 14:03:57;;;;;;;4.20;2.40;;;;;;;22.83;53.35;98926.63;109887;1260;23047;-49
2022/09/15 14:06:35;;;;;;;4.80;2.80;;;;;;;22.84;53.34;98925.09;109827;1260;22698;-49
2022/09/15 14:09:17;;;;;;;5.70;3.00;;;;;;;22.86;53.35;98923.48;109917;1260;22739;-49
2022/09/15 14:12:00;;;;;;;3.70;2.60;;;;;;;22.87;53.25;98916.60;109678;1260;23665;-52
2022/09/15 14:14:32;;;;;;;3.80;2.10;;;;;;;22.88;53.23;98914.94;109795;1260;23099;-52
2022/09/15 14:17:01;;;;;;;5.20;2.90;;;;;;;22.89;53.06;98913.94;109788;1260;23056;-50
2022/09/15 14:19:37;;;;;;;3.50;2.30;;;;;;;22.90;53.14;98917.70;109848;1260;22918;-52
2022/09/15 14:22:30;;;;;;;4.70;2.20;;;;;;;22.90;53.06;98920.88;109839;1260;23103;-50
2022/09/15 14:25:06;;;;;;;5.80;2.20;;;;;;;22.89;53.15;98916.00;109833;1260;21975;-48
2022/09/15 14:27:43;;;;;;;5.90;2.50;;;;;;;22.90;53.10;98919.48;109976;1260;21963;-50
2022/09/15 14:30:18;;;;;;;4.00;2.30;;;;;;;22.90;53.09;98918.77;109794;1260;23593;-49
2022/09/15 14:32:53;;;;;;;5.50;2.70;;;;;;;22.91;53.01;98920.64;110024;1259;23628;-49
2022/09/15 14:35:35;;;;;;;3.70;2.40;;;;;;;22.91;53.00;98920.23;109802;1260;21975;-49
2022/09/15 14:38:04;;;;;;;3.60;2.40;;;;;;;22.91;53.08;98919.38;109949;1259;21973;-48
2022/09/15 14:40:36;;;;;;;3.50;2.30;;;;;;;22.91;53.07;98921.06;109998;1259;23670;-46
2022/09/15 14:43:35;;;;;;;4.00;2.40;;;;;;;22.91;53.09;98918.03;109849;1260;22282;-49
2022/09/15 14:46:12;;;;;;;7.30;2.80;;;;;;;22.90;53.22;98918.17;109755;1259;21962;-47
2022/09/15 14:48:41;;;;;;;6.00;2.50;;;;;;;22.91;53.19;98920.20;109827;1260;23052;-50
2022/09/15 14:51:23;;;;;;;5.80;2.30;;;;;;;22.92;53.25;98922.60;110025;1259;21969;-47
2022/09/15 14:53:58;;;;;;;8.80;1.90;;;;;;;22.91;53.33;98920.25;109969;1260;22158;-45
2022/09/15 14:56:34;;;;;;;7.20;2.50;;;;;;;22.91;53.41;98920.27;110017;1259;22027;-45
2022/09/15 14:59:10;;;;;;;4.50;2.10;;;;;;;22.92;53.47;98920.34;110053;1260;23539;-46
2022/09/15 15:01:48;;;;;;;8.90;2.20;;;;;;;22.91;53.32;98920.02;109859;1260;24280;-48
2022/09/15 15:04:42;;;;;;;8.00;3.20;;;;;;;22.92;53.19;98921.20;110031;1259;23688;-47
2022/09/15 15:07:24;;;;;;;9.30;2.60;;;;;;;22.91;53.36;98918.41;110035;1259;21973;-49
2022/09/15 15:10:03;;;;;;;3.30;2.50;;;;;;;22.92;53.38;98920.87;109974;1259;21954;-47
2022/09/15 15:13:14;;;;;;;4.00;2.70;;;;;;;22.92;53.39;98920.47;110043;1259;23678;-49
2022/09/15 15:15:44;;;;;;;3.70;2.30;;;;;;;22.91;53.27;98916.89;109990;1259;23795;-47
2022/09/15 15:18:34;;;;;;;5.50;2.70;;;;;;;22.91;53.15;98918.23;109852;1260;22093;-47
2022/09/15 15:21:04;;;;;;;7.50;2.40;;;;;;;22.91;53.20;98915.79;109994;1259;21959;-49
2022/09/15 15:23:33;;;;;;;8.30;2.50;;;;;;;22.93;53.19;98912.58;109912;1260;22036;-48
2022/09/15 15:26:36;;;;;;;3.90;2.50;;;;;;;22.93;53.27;98913.23;109841;1260;23567;-48
2022/09/15 15:29:57;;;;;;;2.30;1.70;;;;;;;22.92;53.42;98914.32;110023;1260;23064;-46
2022/09/15 15:32:33;;;;;;;4.60;2.20;;;;;;;22.89;53.63;98914.07;109337;1260;22220;-47
2022/09/15 15:35:02;;;;;;;4.90;2.10;;;;;;;22.90;53.70;98912.92;109741;1260;23574;-47
2022/09/15 15:37:33;;;;;;;3.50;2.00;;;;;;;22.91;53.52;98912.99;109854;1260;21968;-47
2022/09/15 15:40:06;;;;;;;3.30;2.20;;;;;;;22.92;53.63;98908.10;109836;1260;23567;-46
2022/09/15 15:42:35;;;;;;;5.00;2.20;;;;;;;22.91;53.46;98908.66;109819;1259;22743;-46
2022/09/15 15:45:21;;;;;;;13.80;2.80;;;;;;;22.91;53.42;98907.11;109827;1260;21966;-44
2022/09/15 15:47:51;;;;;;;5.30;2.30;;;;;;;22.90;53.57;98908.43;109856;1260;21963;-45
2022/09/15 15:50:25;;;;;;;28.20;4.20;;;;;;;22.89;53.22;98907.54;109773;1260;23150;-45
2022/09/15 15:52:54;;;;;;;17.20;3.80;;;;;;;22.86;53.04;98907.12;109991;1259;21968;-46
2022/09/15 15:55:35;;;;;;;16.10;3.90;;;;;;;22.85;52.67;98911.20;109954;1259;23675;-45
2022/09/15 15:58:05;;;;;;;9.10;3.10;;;;;;;22.83;52.21;98906.61;109983;1260;22429;-45
2022/09/15 16:00:56;;;;;;;9.80;3.30;;;;;;;22.80;51.88;98902.79;109950;1258;23693;-45
2022/09/15 16:03:26;;;;;;;7.10;3.10;;;;;;;22.77;51.59;98899.64;109982;1259;23584;-47
2022/09/15 16:05:59;;;;;;;9.30;2.60;;;;;;;22.78;51.48;98902.55;109995;1259;23658;-45
2022/09/15 16:08:38;;;;;;;7.50;2.90;;;;;;;22.78;51.43;98902.83;109996;1259;23041;-47
2022/09/15 16:11:11;;;;;;;9.10;3.40;;;;;;;22.80;51.43;98902.29;109804;1260;21970;-47
2022/09/15 16:13:41;;;;;;;10.40;3.20;;;;;;;22.82;51.65;98908.34;109862;1260;22418;-46
2022/09/15 16:16:22;;;;;;;4.20;2.40;;;;;;;22.83;51.64;98914.38;110017;1259;24371;-47
2022/09/15 16:18:52;;;;;;;5.40;2.70;;;;;;;22.83;51.60;98914.89;110029;1259;22023;-45
2022/09/15 16:21:35;;;;;;;10.30;2.60;;;;;;;22.84;51.57;98915.00;109800;1260;22034;-46
2022/09/15 16:24:11;;;;;;;7.00;2.50;;;;;;;22.84;51.74;98914.35;109996;1259;23600;-46
2022/09/15 16:26:41;;;;;;;4.80;2.70;;;;;;;22.84;51.94;98914.11;110023;1259;21975;-46
2022/09/15 16:29:11;;;;;;;8.60;2.70;;;;;;;22.86;52.09;98917.31;110025;1258;23037;-48
2022/09/15 16:31:41;;;;;;;5.90;2.50;;;;;;;22.87;52.28;98918.98;109826;1260;23054;-50
2022/09/15 16:34:16;;;;;;;9.70;3.30;;;;;;;22.89;52.29;98915.52;110007;1259;23016;-47
2022/09/15 16:36:45;;;;;;;6.20;2.90;;;;;;;22.91;52.48;98904.05;109801;1260;23761;-51
2022/09/15 16:39:14;;;;;;;10.60;2.40;;;;;;;22.95;52.58;98908.18;109978;1260;21962;-50
2022/09/15 16:41:43;;;;;;;9.70;2.30;;;;;;;22.96;52.62;98914.53;109765;1260;21986;-49
2022/09/15 16:44:17;;;;;;;7.30;2.80;;;;;;;22.96;52.52;98915.77;109958;1259;23567;-45
2022/09/15 16:46:46;;;;;;;6.10;2.70;;;;;;;22.96;52.51;98918.83;109913;1260;22018;-46
2022/09/15 16:49:16;;;;;;;4.40;2.80;;;;;;;22.95;52.74;98919.20;109675;1261;22011;-50
2022/09/15 16:51:45;;;;;;;5.80;2.20;;;;;;;22.95;52.83;98923.08;109741;1260;21953;-47
2022/09/15 16:54:18;;;;;;;5.00;2.40;;;;;;;22.96;52.70;98926.58;109849;1260;23667;-49
2022/09/15 16:56:47;;;;;;;6.90;2.30;;;;;;;22.96;52.78;98926.54;109867;1260;22596;-45
2022/09/15 16:59:17;;;;;;;7.80;2.10;;;;;;;22.96;52.67;98927.44;110033;1257;23563;-51
2022/09/15 17:01:45;;;;;;;9.70;2.20;;;;;;;22.98;52.81;98930.63;109817;1258;21963;-48
2022/09/15 17:04:15;;;;;;;8.50;2.60;;;;;;;23.00;52.82;98936.84;110028;1257;23664;-49
2022/09/15 17:06:44;;;;;;;9.70;2.70;;;;;;;23.00;52.95;98934.61;110035;1257;23651;-47
2022/09/15 17:09:15;;;;;;;6.30;2.70;;;;;;;23.01;52.91;98933.28;110023;1257;23585;-48
2022/09/15 17:11:44;;;;;;;11.10;2.70;;;;;;;23.02;52.91;98935.84;110084;1257;21964;-47
2022/09/15 17:14:15;;;;;;;10.90;2.40;;;;;;;23.01;52.97;98936.64;110064;1257;21971;-46
2022/09/15 17:16:46;;;;;;;6.10;1.90;;;;;;;23.00;52.82;98938.93;110083;1257;22927;-50
2022/09/15 17:19:15;;;;;;;13.70;3.50;;;;;;;22.98;52.85;98942.13;110040;1257;21961;-47
2022/09/15 17:21:45;;;;;;;4.90;2.40;;;;;;;22.97;52.90;98944.27;110051;1257;22033;-47
2022/09/15 17:24:14;;;;;;;9.80;2.30;;;;;;;22.96;52.84;98944.70;110046;1256;23751;-48
2022/09/15 17:26:43;;;;;;;5.60;2.60;;;;;;;22.95;52.89;98946.73;110092;1257;21963;-48
2022/09/15 17:29:14;;;;;;;7.60;2.90;;;;;;;22.94;52.98;98947.06;110051;1257;22620;-46
2022/09/15 17:31:43;;;;;;;3.80;2.40;;;;;;;22.94;52.84;98949.17;110036;1257;21963;-48
